Terminal Aerodrome Forecast
Issued by NWS Austin/San Antonio, TX

Home | Current Version | Previous Version | Text Only | Print | Product List | Glossary On
Versions: 1 2 3 4 5 6 7 8 9 10 11 12 13 14 15 16
000
FTUS44 KEWX 301100 AAA
TAFSAT
TAF AMD
KSAT 301142Z 3012/3118 16008KT P6SM BKN010 BKN250
     FM301500 17011KT P6SM SCT250
     FM302200 15015KT P6SM SCT250
     FM310900 18008KT P6SM BKN015
     FM311600 18010KT P6SM SCT028=

USA.gov is the U.S. government's official web portal to all federal, state and local government web resources and services.